createdAt,value
2023-03-25T00:02:49.447Z,2.90
2023-03-25T00:13:15.558Z,2.60
2023-03-25T00:23:42.072Z,3.00
2023-03-25T00:34:07.439Z,3.60
2023-03-25T00:44:33.770Z,3.70
2023-03-25T00:54:59.245Z,3.80
2023-03-25T01:05:25.130Z,3.00
2023-03-25T01:15:51.400Z,3.50
2023-03-25T01:26:17.857Z,4.70
2023-03-25T01:36:46.914Z,5.40
2023-03-25T01:47:12.774Z,6.30
2023-03-25T01:57:43.960Z,3.80
2023-03-25T02:08:10.459Z,3.10
2023-03-25T02:18:45.600Z,2.50
2023-03-25T02:29:24.255Z,2.20
2023-03-25T02:39:57.030Z,2.40
2023-03-25T02:50:28.859Z,2.70
2023-03-25T03:00:59.173Z,2.60
2023-03-25T03:11:29.400Z,3.50
2023-03-25T03:22:01.321Z,3.60
2023-03-25T03:32:32.774Z,3.80
2023-03-25T03:43:02.774Z,4.50
2023-03-25T03:53:33.310Z,3.50
2023-03-25T04:04:02.312Z,3.60
2023-03-25T04:14:28.503Z,5.50
2023-03-25T04:24:56.341Z,4.90
2023-03-25T04:35:22.989Z,6.40
2023-03-25T04:45:54.544Z,7.70
2023-03-25T04:56:21.494Z,6.50
2023-03-25T05:06:49.500Z,8.20
2023-03-25T05:17:15.510Z,6.00
2023-03-25T05:27:41.720Z,6.70
2023-03-25T05:38:08.297Z,6.20
2023-03-25T05:48:35.841Z,6.00
2023-03-25T05:59:01.762Z,5.80
2023-03-25T06:09:31.220Z,8.50
2023-03-25T06:19:57.178Z,10.50
2023-03-25T06:30:23.995Z,9.10
2023-03-25T06:40:50.174Z,10.10
2023-03-25T06:51:16.330Z,7.10
2023-03-25T07:01:43.234Z,5.90
2023-03-25T07:12:09.907Z,4.30
2023-03-25T07:22:36.003Z,5.00
2023-03-25T07:33:01.955Z,4.20
2023-03-25T07:43:28.137Z,3.10
2023-03-25T07:53:53.816Z,3.20
2023-03-25T08:04:19.533Z,3.90
2023-03-25T08:14:45.244Z,3.90
2023-03-25T08:25:12.269Z,3.90
2023-03-25T08:35:39.813Z,3.60
2023-03-25T08:56:30.239Z,4.10
2023-03-25T09:07:12.058Z,4.50
2023-03-25T09:17:38.672Z,3.80
2023-03-25T09:28:04.531Z,3.10
2023-03-25T09:38:32.012Z,3.90
2023-03-25T09:48:58.832Z,2.10
2023-03-25T09:59:28.812Z,2.30
2023-03-25T10:10:03.533Z,1.20
2023-03-25T10:20:43.337Z,1.20
2023-03-25T10:31:15.101Z,1.10
2023-03-25T10:41:43.715Z,0.70
2023-03-25T10:52:10.301Z,1.20
2023-03-25T11:02:36.454Z,1.90
2023-03-25T11:13:04.192Z,1.20
2023-03-25T11:23:33.372Z,0.90
2023-03-25T11:34:17.687Z,1.00
2023-03-25T11:44:44.527Z,0.80
2023-03-25T11:55:20.406Z,1.10
2023-03-25T12:05:58.074Z,1.00
2023-03-25T12:16:31.689Z,1.60
2023-03-25T12:27:10.151Z,5.00
2023-03-25T12:37:47.551Z,2.70
2023-03-25T12:48:26.972Z,2.10
2023-03-25T12:59:27.902Z,2.40
2023-03-25T13:10:01.468Z,1.80
2023-03-25T13:20:29.345Z,1.50
2023-03-25T13:30:57.853Z,22.70
2023-03-25T13:41:29.662Z,1.30
2023-03-25T13:51:56.313Z,1.90
2023-03-25T14:02:41.298Z,0.60
2023-03-25T14:13:10.225Z,1.50
2023-03-25T14:23:36.326Z,0.70
2023-03-25T14:34:26.869Z,0.70
2023-03-25T14:44:55.492Z,1.30
2023-03-25T14:55:27.358Z,1.40
2023-03-25T15:06:00.793Z,3.10
2023-03-25T15:16:35.788Z,2.00
2023-03-25T15:27:08.740Z,2.50
2023-03-25T15:37:55.085Z,2.20
2023-03-25T15:48:39.593Z,3.30
2023-03-25T15:59:13.771Z,3.80
2023-03-25T16:09:47.134Z,2.80
2023-03-25T16:20:19.434Z,1.60
2023-03-25T16:30:50.449Z,2.40
2023-03-25T16:41:17.667Z,1.70
2023-03-25T16:51:45.097Z,2.30
2023-03-25T17:02:27.990Z,2.70
2023-03-25T17:12:59.297Z,2.30
2023-03-25T17:23:34.458Z,2.80
2023-03-25T17:34:09.492Z,5.10
2023-03-25T17:44:37.868Z,8.70
2023-03-25T17:55:03.892Z,5.80
2023-03-25T18:05:29.952Z,8.60
2023-03-25T18:15:58.814Z,9.20
2023-03-25T18:36:49.723Z,9.00
2023-03-25T18:47:15.589Z,11.10
2023-03-25T18:57:42.403Z,7.60
2023-03-25T19:08:09.094Z,17.40
2023-03-25T19:18:35.710Z,14.50
2023-03-25T19:29:01.900Z,17.40
2023-03-25T19:39:28.253Z,13.00
2023-03-25T19:49:54.319Z,8.30
2023-03-25T20:00:22.903Z,12.30
2023-03-25T20:10:48.318Z,15.10
2023-03-25T20:21:14.481Z,15.50
2023-03-25T20:31:40.813Z,11.80
2023-03-25T20:42:07.121Z,10.40
2023-03-25T20:52:32.816Z,8.50
2023-03-25T21:02:59.228Z,6.10
2023-03-25T21:13:26.547Z,3.40
2023-03-25T21:23:52.256Z,1.60
2023-03-25T21:34:18.395Z,1.90
2023-03-25T21:44:44.118Z,1.30
2023-03-25T21:55:11.329Z,2.60
2023-03-25T22:05:36.743Z,2.80
2023-03-25T22:16:02.791Z,2.30
2023-03-25T22:26:30.319Z,2.30
2023-03-25T22:36:56.167Z,2.20
2023-03-25T22:47:21.908Z,0.90
2023-03-25T22:57:47.937Z,1.00
2023-03-25T23:08:13.858Z,1.30
2023-03-25T23:18:41.997Z,1.10
2023-03-25T23:39:35.084Z,1.60
2023-03-25T23:50:04.157Z,1.10
